Time;durP1;ratioP1;P1;durP2;ratioP2;P2;SDS_P1;SDS_P2;PMS_P1;PMS_P2;Temp;Humidity;BMP_temperature;BMP_pressure;BME280_temperature;BME280_humidity;BME280_pressure;Samples;Min_cycle;Max_cycle;Signal;HPM_P1;HPM_P2
2023/02/06 00:04:47;;;;;;;;;;;;;;;-4.18;86.33;101692.62;441523;1249;142724;-63
2023/02/06 00:14:52;;;;;;;37.60;21.20;;;;;;;-4.22;86.38;101695.25;451549;1250;129608;-63
2023/02/06 00:24:59;;;;;;;30.80;17.10;;;;;;;-4.31;86.24;101694.45;450421;1249;142478;-64
2023/02/06 00:35:05;;;;;;;28.00;15.20;;;;;;;-4.39;86.44;101703.27;451297;1250;144992;-63
2023/02/06 00:45:12;;;;;;;26.50;16.30;;;;;;;-4.42;86.75;101693.09;443985;1251;146322;-63
2023/02/06 00:55:18;;;;;;;28.50;17.20;;;;;;;-4.57;86.93;101684.77;436051;1251;143455;-62
2023/02/06 01:05:24;;;;;;;25.10;19.60;;;;;;;-4.81;87.12;101675.45;451121;1250;142038;-63
2023/02/06 01:15:30;;;;;;;24.40;15.60;;;;;;;-5.11;87.12;101661.29;450454;1249;144260;-64
2023/02/06 01:25:36;;;;;;;19.80;13.10;;;;;;;-5.36;87.41;101649.88;438934;1251;142774;-62
2023/02/06 01:35:42;;;;;;;26.10;16.90;;;;;;;-5.58;87.65;101643.14;436638;1251;143872;-63
2023/02/06 01:45:48;;;;;;;24.70;15.10;;;;;;;-5.80;87.85;101644.73;434434;1253;142526;-62
2023/02/06 01:55:57;;;;;;;25.80;15.90;;;;;;;-5.89;88.31;101636.08;442598;1249;143792;-63
2023/02/06 02:06:08;;;;;;;24.90;16.30;;;;;;;-5.97;88.63;101636.11;435259;1251;143827;-63
2023/02/06 02:16:19;;;;;;;23.20;16.50;;;;;;;-6.08;88.97;101640.52;436281;1251;143488;-63
2023/02/06 02:27:00;;;;;;;22.00;14.80;;;;;;;-6.13;89.30;101654.15;434939;1253;142791;-62
2023/02/06 02:37:17;;;;;;;24.90;15.00;;;;;;;-6.19;89.57;101662.45;436756;1250;143961;-62
2023/02/06 02:47:29;;;;;;;25.90;14.90;;;;;;;-6.23;89.80;101668.60;436058;1250;144810;-63
2023/02/06 02:57:36;;;;;;;26.30;16.40;;;;;;;-6.13;90.27;101671.19;435234;1251;143180;-64
2023/02/06 03:07:53;;;;;;;23.10;15.10;;;;;;;-5.93;90.38;101670.55;437073;1250;146332;-63
2023/02/06 03:18:03;;;;;;;23.00;15.00;;;;;;;-5.78;90.04;101657.11;439578;1251;143309;-63
2023/02/06 03:28:15;;;;;;;22.40;15.50;;;;;;;-5.69;89.77;101649.23;436447;1250;142808;-63
2023/02/06 03:38:23;;;;;;;19.40;14.40;;;;;;;-5.62;89.57;101643.16;437108;1251;143027;-63
2023/02/06 03:48:33;;;;;;;22.40;14.70;;;;;;;-5.60;89.31;101631.45;434606;1250;142688;-65
2023/02/06 03:58:39;;;;;;;25.50;15.20;;;;;;;-5.58;89.18;101623.51;439313;1250;143993;-63
2023/02/06 04:08:45;;;;;;;25.00;15.50;;;;;;;-5.56;89.26;101620.85;436292;1251;142518;-63
2023/02/06 04:18:51;;;;;;;26.10;16.50;;;;;;;-5.56;89.41;101620.86;433394;1253;142274;-63
2023/02/06 04:28:57;;;;;;;23.10;15.10;;;;;;;-5.64;89.15;101616.64;436339;1251;142593;-63
2023/02/06 04:39:04;;;;;;;20.90;14.30;;;;;;;-5.78;89.05;101624.70;436615;1253;143551;-64
2023/02/06 04:49:10;;;;;;;24.00;15.10;;;;;;;-5.84;89.28;101628.42;436247;1250;142715;-63
2023/02/06 04:59:16;;;;;;;26.50;16.30;;;;;;;-5.86;89.49;101625.94;434697;1251;143371;-63
2023/02/06 05:09:22;;;;;;;23.70;16.90;;;;;;;-5.93;89.69;101623.64;436219;1251;141270;-63
2023/02/06 05:19:28;;;;;;;24.70;17.70;;;;;;;-6.02;89.70;101625.57;435174;1250;142110;-62
2023/02/06 05:29:33;;;;;;;22.40;16.90;;;;;;;-6.04;89.94;101633.84;436262;1251;143361;-63
2023/02/06 05:39:40;;;;;;;27.30;20.20;;;;;;;-6.10;90.14;101637.20;437271;1250;143663;-63
2023/02/06 05:49:47;;;;;;;26.40;18.50;;;;;;;-6.26;90.00;101639.35;436113;1251;145021;-64
2023/02/06 05:59:52;;;;;;;30.00;19.90;;;;;;;-6.56;89.86;101649.61;450991;1250;143881;-64
2023/02/06 06:09:58;;;;;;;24.70;16.70;;;;;;;-6.80;90.20;101650.35;443452;1250;143251;-62
2023/02/06 06:20:04;;;;;;;29.40;20.90;;;;;;;-6.99;90.18;101655.21;451191;1248;144007;-65
2023/02/06 06:30:13;;;;;;;27.90;20.40;;;;;;;-7.04;90.51;101657.91;447331;1250;143042;-65
2023/02/06 06:40:19;;;;;;;27.70;18.30;;;;;;;-6.84;90.94;101661.14;450142;1251;143951;-66
2023/02/06 06:50:24;;;;;;;25.80;16.90;;;;;;;-6.48;90.90;101659.47;450934;1251;143149;-66
2023/02/06 07:00:30;;;;;;;28.30;20.00;;;;;;;-6.04;90.98;101664.17;450109;1250;142984;-66
2023/02/06 07:10:36;;;;;;;31.20;19.30;;;;;;;-5.51;91.02;101663.52;451049;1250;143971;-67
2023/02/06 07:20:42;;;;;;;31.20;19.70;;;;;;;-4.93;90.93;101663.60;451103;1251;144111;-66
2023/02/06 07:30:47;;;;;;;24.40;16.80;;;;;;;-3.51;91.04;101676.48;444794;1251;147877;-65
2023/02/06 07:40:53;;;;;;;23.80;16.30;;;;;;;-1.17;88.44;101672.16;451067;1249;143342;-66
2023/02/06 07:51:06;;;;;;;20.40;14.20;;;;;;;-0.11;85.35;101675.27;451047;1250;142495;-66
2023/02/06 08:01:12;;;;;;;21.50;14.80;;;;;;;1.49;84.39;101669.34;450277;1250;144280;-66
2023/02/06 08:11:20;;;;;;;22.40;16.40;;;;;;;3.55;80.61;101663.99;451029;1250;146647;-66
2023/02/06 08:21:26;;;;;;;22.00;15.90;;;;;;;2.94;78.51;101669.56;451045;1250;142650;-66
2023/02/06 08:31:35;;;;;;;27.40;18.10;;;;;;;3.67;77.39;101664.65;449635;1250;211002;-67
2023/02/06 08:41:42;;;;;;;27.00;18.70;;;;;;;4.89;76.73;101663.30;450992;1250;141608;-67
2023/02/06 08:51:49;;;;;;;21.70;18.50;;;;;;;8.52;74.15;101651.77;450324;1251;142877;-67
2023/02/06 09:01:55;;;;;;;24.90;20.60;;;;;;;10.48;69.51;101651.94;450657;1250;142262;-67
2023/02/06 09:12:02;;;;;;;23.30;19.90;;;;;;;8.52;66.47;101666.41;451123;1250;142322;-66
2023/02/06 09:22:08;;;;;;;22.00;19.20;;;;;;;10.36;65.70;101667.14;450402;1250;193761;-66
2023/02/06 09:32:14;;;;;;;21.10;19.00;;;;;;;11.79;63.56;101663.58;451028;1250;142223;-67
2023/02/06 09:42:27;;;;;;;22.90;20.70;;;;;;;13.37;60.88;101650.96;450996;1251;160862;-66
2023/02/06 09:52:54;;;;;;;24.10;19.00;;;;;;;12.78;57.17;101659.30;445343;1251;141897;-67
2023/02/06 10:03:12;;;;;;;21.70;17.00;;;;;;;7.83;56.23;101663.04;451181;1249;141128;-65
2023/02/06 10:13:26;;;;;;;24.40;17.10;;;;;;;5.33;58.44;101665.48;450430;1251;142572;-67
2023/02/06 10:23:37;;;;;;;20.50;16.00;;;;;;;3.59;59.77;101667.64;451214;1250;142177;-66
2023/02/06 10:33:50;;;;;;;24.30;15.90;;;;;;;2.29;60.94;101669.89;450441;1251;142131;-67
2023/02/06 10:44:01;;;;;;;22.80;15.70;;;;;;;1.40;62.54;101668.39;451166;1250;142649;-67
2023/02/06 10:54:16;;;;;;;25.60;16.40;;;;;;;0.79;63.94;101660.80;451168;1249;142351;-67
2023/02/06 11:04:29;;;;;;;17.40;11.80;;;;;;;0.90;64.72;101656.25;448839;1251;197767;-67
2023/02/06 11:14:38;;;;;;;15.90;10.80;;;;;;;1.24;64.27;101654.30;447970;1249;142418;-67
2023/02/06 11:25:01;;;;;;;20.20;14.60;;;;;;;1.76;64.12;101654.64;450519;1250;142726;-66
2023/02/06 11:35:26;;;;;;;13.40;10.90;;;;;;;2.04;63.52;101660.14;451250;1249;197282;-66
2023/02/06 11:45:33;;;;;;;8.60;7.30;;;;;;;2.03;63.22;101663.25;450519;1250;154506;-67
2023/02/06 11:55:41;;;;;;;9.90;6.60;;;;;;;1.63;63.04;101660.95;451254;1249;141227;-67
2023/02/06 12:05:46;;;;;;;;;;;;;;;1.23;63.46;101655.84;451237;1249;141645;-67
2023/02/06 12:15:56;;;;;;;13.40;10.70;;;;;;;0.95;63.68;101647.33;450783;1249;127306;-67
2023/02/06 12:26:08;;;;;;;13.00;8.00;;;;;;;0.80;64.28;101639.27;451322;1249;142014;-67
2023/02/06 12:36:19;;;;;;;8.90;6.90;;;;;;;0.64;64.23;101643.42;451245;1249;141192;-67
2023/02/06 12:46:28;;;;;;;8.50;5.30;;;;;;;0.44;64.06;101655.27;444756;1250;139851;-67
2023/02/06 12:56:39;;;;;;;7.40;5.50;;;;;;;0.23;64.02;101661.92;451344;1249;141561;-67
2023/02/06 13:06:52;;;;;;;6.40;4.50;;;;;;;0.13;63.83;101667.98;446248;1249;141265;-68
2023/02/06 13:17:06;;;;;;;10.40;6.50;;;;;;;0.00;63.45;101679.89;451290;1249;184355;-68
2023/02/06 13:27:15;;;;;;;6.80;3.70;;;;;;;-0.10;63.44;101675.97;451348;1249;140861;-68
2023/02/06 13:37:34;;;;;;;8.20;5.30;;;;;;;-0.12;62.62;101668.88;436378;1251;141985;-68
2023/02/06 13:48:15;;;;;;;14.50;8.20;;;;;;;-0.45;62.38;101670.65;435754;1253;142359;-64
2023/02/06 13:58:35;;;;;;;10.00;8.00;;;;;;;-1.05;62.61;101664.17;450342;1249;142470;-68
2023/02/06 14:08:51;;;;;;;11.20;6.20;;;;;;;-1.61;62.98;101660.59;451369;1249;142129;-67
2023/02/06 14:19:03;;;;;;;7.00;4.60;;;;;;;-1.76;63.41;101660.63;450638;1250;142162;-66
2023/02/06 14:29:22;;;;;;;6.20;4.50;;;;;;;-1.71;63.22;101673.97;451282;1249;140925;-68
2023/02/06 14:39:42;;;;;;;7.00;4.60;;;;;;;-1.64;63.10;101679.42;436978;1251;140989;-68
2023/02/06 14:49:49;;;;;;;5.60;4.50;;;;;;;-1.62;63.20;101684.63;451002;1249;141353;-67
2023/02/06 14:59:58;;;;;;;5.50;4.40;;;;;;;-1.60;63.20;101683.63;451325;1249;140365;-66
2023/02/06 15:10:08;;;;;;;8.90;5.10;;;;;;;-1.81;63.28;101685.27;447979;1249;141951;-67
2023/02/06 15:20:36;;;;;;;7.00;5.00;;;;;;;-2.16;63.22;101695.49;451226;1249;142110;-66
2023/02/06 15:30:42;;;;;;;9.80;5.40;;;;;;;-2.43;64.11;101715.14;444473;1249;146228;-67
2023/02/06 15:40:47;;;;;;;;;;;;;;;-2.61;65.07;101718.13;447067;1249;143403;-65
2023/02/06 15:51:01;;;;;;;10.60;5.00;;;;;;;-2.83;65.43;101714.16;451523;1248;129855;-66
2023/02/06 16:01:14;;;;;;;10.10;5.30;;;;;;;-3.05;66.71;101727.99;450414;1248;143176;-66
2023/02/06 16:21:44;;;;;;;17.50;8.70;;;;;;;-3.58;67.72;101745.89;450086;1250;143934;-65
2023/02/06 16:32:00;;;;;;;16.50;9.20;;;;;;;-3.85;69.01;101756.39;450967;1249;143211;-67
2023/02/06 16:42:06;;;;;;;14.00;9.80;;;;;;;-4.02;69.77;101773.87;451064;1249;142016;-67
2023/02/06 16:52:19;;;;;;;16.40;9.60;;;;;;;-4.31;70.25;101778.77;450069;1250;142601;-66
2023/02/06 17:02:25;;;;;;;17.50;11.00;;;;;;;-4.69;70.95;101783.68;450969;1250;142416;-67
2023/02/06 17:12:31;;;;;;;14.30;9.60;;;;;;;-5.04;71.67;101791.35;450212;1250;143418;-66
2023/02/06 17:22:37;;;;;;;20.60;12.40;;;;;;;-5.42;72.19;101794.42;451228;1249;142494;-66
2023/02/06 17:32:43;;;;;;;36.20;18.40;;;;;;;-5.76;72.97;101790.94;451189;1249;142154;-66
2023/02/06 17:42:49;;;;;;;36.60;20.40;;;;;;;-6.05;73.64;101809.48;450368;1249;142233;-66
2023/02/06 17:52:57;;;;;;;27.30;15.50;;;;;;;-6.25;74.46;101825.56;451050;1250;142957;-67
2023/02/06 18:03:04;;;;;;;31.60;17.60;;;;;;;-6.52;75.01;101823.23;449009;1250;142616;-67
2023/02/06 18:13:10;;;;;;;33.90;23.00;;;;;;;-6.78;75.56;101826.91;450452;1250;142459;-67
2023/02/06 18:23:18;;;;;;;53.00;29.80;;;;;;;-7.02;75.88;101826.26;450762;1249;142011;-66
2023/02/06 18:33:24;;;;;;;45.80;27.60;;;;;;;-7.24;76.37;101810.79;451218;1250;142083;-66
2023/02/06 18:43:30;;;;;;;40.20;25.60;;;;;;;-7.45;76.58;101803.38;445987;1250;143502;-67
2023/02/06 18:53:36;;;;;;;45.10;26.50;;;;;;;-7.65;77.15;101802.98;450960;1248;142821;-68
2023/02/06 19:03:42;;;;;;;37.50;24.80;;;;;;;-7.85;77.48;101806.87;449920;1250;142911;-67
2023/02/06 19:13:48;;;;;;;47.10;27.70;;;;;;;-8.00;77.54;101801.39;450918;1250;142109;-66
2023/02/06 19:23:57;;;;;;;45.10;27.80;;;;;;;-8.16;77.88;101806.07;450609;1251;143036;-67
2023/02/06 19:34:03;;;;;;;50.70;30.20;;;;;;;-8.32;78.04;101806.30;450062;1249;142170;-66
2023/02/06 19:44:14;;;;;;;52.20;32.20;;;;;;;-8.46;78.47;101824.00;445406;1251;142119;-67
2023/02/06 19:54:20;;;;;;;48.20;30.10;;;;;;;-8.61;78.79;101836.38;450731;1250;142419;-67
2023/02/06 20:04:28;;;;;;;55.90;34.90;;;;;;;-8.73;79.05;101842.21;450266;1250;143049;-66
2023/02/06 20:14:34;;;;;;;65.90;42.80;;;;;;;-8.85;79.35;101848.73;447051;1250;142458;-67
2023/02/06 20:24:40;;;;;;;52.00;34.80;;;;;;;-8.98;79.42;101851.77;450136;1249;142579;-66
2023/02/06 20:34:46;;;;;;;89.00;49.90;;;;;;;-9.12;79.55;101864.80;450863;1250;142287;-66
2023/02/06 20:44:52;;;;;;;216.90;124.10;;;;;;;-9.22;79.80;101867.16;447790;1250;143401;-67
2023/02/06 20:54:58;;;;;;;87.70;52.00;;;;;;;-9.33;80.01;101876.40;439129;1250;142713;-64
2023/02/06 21:05:05;;;;;;;104.70;66.20;;;;;;;-9.49;79.88;101888.11;450912;1248;142774;-66
2023/02/06 21:15:11;;;;;;;115.70;68.90;;;;;;;-9.62;80.15;101895.22;443939;1250;142405;-66
2023/02/06 21:25:19;;;;;;;150.60;94.20;;;;;;;-9.75;80.16;101892.98;450050;1250;142720;-66
2023/02/06 21:35:29;;;;;;;157.80;93.80;;;;;;;-9.83;80.50;101905.59;450987;1250;143477;-66
2023/02/06 21:45:37;;;;;;;162.50;95.30;;;;;;;-9.91;80.58;101899.69;443153;1250;143614;-67
2023/02/06 21:55:45;;;;;;;198.20;120.60;;;;;;;-10.01;80.81;101897.45;446520;1250;143111;-66
2023/02/06 22:05:51;;;;;;;215.20;129.50;;;;;;;-10.12;80.72;101899.17;450742;1250;142579;-67
2023/02/06 22:15:57;;;;;;;227.20;132.40;;;;;;;-10.21;81.18;101891.41;444479;1251;142435;-67
2023/02/06 22:26:03;;;;;;;216.60;132.20;;;;;;;-10.29;80.98;101879.41;450903;1250;144495;-65
2023/02/06 22:36:12;;;;;;;221.60;136.10;;;;;;;-10.36;81.12;101871.55;449436;1253;142975;-64
2023/02/06 22:46:22;;;;;;;226.20;135.80;;;;;;;-10.43;81.14;101878.66;444826;1250;143367;-66
2023/02/06 22:56:30;;;;;;;232.00;134.90;;;;;;;-10.49;81.47;101890.45;450866;1250;142994;-67
2023/02/06 23:06:37;;;;;;;214.30;135.40;;;;;;;-10.54;81.92;101897.84;449875;1251;143266;-65
2023/02/06 23:16:43;;;;;;;214.70;131.40;;;;;;;-10.59;82.29;101892.98;442083;1250;144570;-67
2023/02/06 23:26:52;;;;;;;191.40;122.30;;;;;;;-10.63;82.06;101899.81;450286;1253;143489;-65
2023/02/06 23:36:58;;;;;;;204.50;128.10;;;;;;;-10.63;82.60;101904.20;448156;1250;143914;-66
2023/02/06 23:47:04;;;;;;;208.40;122.40;;;;;;;-10.67;82.44;101901.81;450855;1250;143072;-65
2023/02/06 23:57:10;;;;;;;200.50;124.40;;;;;;;-10.76;82.48;101908.73;450627;1250;143142;-65
